createdAt,value
2022-09-04T00:01:38.784Z,15.70
2022-09-04T00:04:30.687Z,15.70
2022-09-04T00:07:10.055Z,15.70
2022-09-04T00:09:48.422Z,15.80
2022-09-04T00:12:26.736Z,15.80
2022-09-04T00:15:02.415Z,15.80
2022-09-04T00:17:36.667Z,15.80
2022-09-04T00:20:12.425Z,15.70
2022-09-04T00:22:52.396Z,15.70
2022-09-04T00:25:26.441Z,15.60
2022-09-04T00:28:04.922Z,15.60
2022-09-04T00:30:37.724Z,15.50
2022-09-04T00:33:11.019Z,15.60
2022-09-04T00:35:47.828Z,15.70
2022-09-04T00:38:27.318Z,15.60
2022-09-04T00:41:08.397Z,15.60
2022-09-04T00:44:08.843Z,15.60
2022-09-04T00:46:54.386Z,15.60
2022-09-04T00:49:42.332Z,15.50
2022-09-04T00:52:35.366Z,15.60
2022-09-04T00:55:18.590Z,15.40
2022-09-04T00:58:08.463Z,15.30
2022-09-04T01:00:37.854Z,15.20
2022-09-04T01:03:35.195Z,15.20
2022-09-04T01:06:15.516Z,15.30
2022-09-04T01:09:12.909Z,15.20
2022-09-04T01:11:44.669Z,15.10
2022-09-04T01:14:19.512Z,15.30
2022-09-04T01:16:50.591Z,15.50
2022-09-04T01:19:42.631Z,15.60
2022-09-04T01:22:27.506Z,15.80
2022-09-04T01:25:06.974Z,16.10
2022-09-04T01:27:49.366Z,16.00
2022-09-04T01:30:20.769Z,16.00
2022-09-04T01:33:00.878Z,16.00
2022-09-04T01:35:35.537Z,16.10
2022-09-04T01:38:12.997Z,16.10
2022-09-04T01:40:47.597Z,16.00
2022-09-04T01:43:21.183Z,16.00
2022-09-04T01:46:23.621Z,15.90
2022-09-04T01:48:55.717Z,15.90
2022-09-04T01:51:33.533Z,15.80
2022-09-04T01:54:13.855Z,15.90
2022-09-04T01:56:47.172Z,15.80
2022-09-04T01:59:26.970Z,15.60
2022-09-04T02:01:59.422Z,15.50
2022-09-04T02:04:36.062Z,15.40
2022-09-04T02:07:12.721Z,15.40
2022-09-04T02:09:54.056Z,15.30
2022-09-04T02:12:36.184Z,15.30
2022-09-04T02:15:13.813Z,15.20
2022-09-04T02:17:51.304Z,15.20
2022-09-04T02:20:25.789Z,15.20
2022-09-04T02:23:04.512Z,15.10
2022-09-04T02:25:37.189Z,15.00
2022-09-04T02:28:20.631Z,15.00
2022-09-04T02:30:57.559Z,14.90
2022-09-04T02:33:35.833Z,14.80
2022-09-04T02:36:09.187Z,14.80
2022-09-04T02:38:46.736Z,14.80
2022-09-04T02:41:24.119Z,14.90
2022-09-04T02:44:03.238Z,14.90
2022-09-04T02:46:44.089Z,14.90
2022-09-04T02:49:20.266Z,14.90
2022-09-04T02:52:01.971Z,14.90
2022-09-04T02:54:44.986Z,14.80
2022-09-04T02:57:28.200Z,14.70
2022-09-04T03:00:07.189Z,14.80
2022-09-04T03:02:42.695Z,14.90
2022-09-04T03:05:20.209Z,15.20
2022-09-04T03:07:55.146Z,15.40
2022-09-04T03:10:31.104Z,15.40
2022-09-04T03:13:07.077Z,15.30
2022-09-04T03:15:43.169Z,15.30
2022-09-04T03:18:20.923Z,15.30
2022-09-04T03:20:55.482Z,15.40
2022-09-04T03:23:33.836Z,15.40
2022-09-04T03:26:22.801Z,15.40
2022-09-04T03:29:04.049Z,15.50
2022-09-04T03:31:38.545Z,15.60
2022-09-04T03:34:22.132Z,15.50
2022-09-04T03:37:06.295Z,15.40
2022-09-04T03:39:45.956Z,15.40
2022-09-04T03:42:21.661Z,15.40
2022-09-04T03:44:58.872Z,15.40
2022-09-04T03:47:36.154Z,15.50
2022-09-04T03:50:15.143Z,15.60
2022-09-04T03:52:52.015Z,15.80
2022-09-04T03:55:37.284Z,15.90
2022-09-04T03:58:13.327Z,16.00
2022-09-04T04:00:57.166Z,16.00
2022-09-04T04:03:49.029Z,16.20
2022-09-04T04:06:28.246Z,16.20
2022-09-04T04:09:23.876Z,16.30
2022-09-04T04:12:13.436Z,16.20
2022-09-04T04:14:59.360Z,16.20
2022-09-04T04:17:54.097Z,16.00
2022-09-04T04:20:34.786Z,15.90
2022-09-04T04:23:29.465Z,15.80
2022-09-04T04:26:10.578Z,15.60
2022-09-04T04:29:02.021Z,15.60
2022-09-04T04:31:44.638Z,15.50
2022-09-04T04:34:24.078Z,15.40
2022-09-04T04:37:00.911Z,15.30
2022-09-04T04:39:37.102Z,15.30
2022-09-04T04:42:24.087Z,15.10
2022-09-04T04:45:38.675Z,15.10
2022-09-04T04:48:51.111Z,15.00
2022-09-04T04:51:57.826Z,15.00
2022-09-04T04:54:47.571Z,15.00
2022-09-04T04:57:28.681Z,15.00
2022-09-04T05:00:07.795Z,15.00
2022-09-04T05:02:43.346Z,15.00
2022-09-04T05:05:18.799Z,15.00
2022-09-04T05:08:04.972Z,15.00
2022-09-04T05:10:42.487Z,15.10
2022-09-04T05:13:20.071Z,15.00
2022-09-04T05:16:09.059Z,15.00
2022-09-04T05:18:48.797Z,15.00
2022-09-04T05:21:24.531Z,14.90
2022-09-04T05:24:00.545Z,14.90
2022-09-04T05:26:34.706Z,14.90
2022-09-04T05:29:07.758Z,15.00
2022-09-04T05:31:46.468Z,15.00
2022-09-04T05:34:21.837Z,15.00
2022-09-04T05:37:01.205Z,15.00
2022-09-04T05:39:33.502Z,15.10
2022-09-04T05:42:36.252Z,15.10
2022-09-04T05:45:14.880Z,15.20
2022-09-04T05:47:52.493Z,15.40
2022-09-04T05:50:46.043Z,15.40
2022-09-04T05:53:42.758Z,15.40
2022-09-04T05:56:33.778Z,15.50
2022-09-04T05:59:27.875Z,15.60
2022-09-04T06:02:42.243Z,15.70
2022-09-04T06:05:23.336Z,15.80
2022-09-04T06:08:02.061Z,16.10
2022-09-04T06:10:39.794Z,16.30
2022-09-04T06:13:33.556Z,16.50
2022-09-04T06:16:24.477Z,16.60
2022-09-04T06:19:17.408Z,16.80
2022-09-04T06:22:24.533Z,17.00
2022-09-04T06:25:17.586Z,17.20
2022-09-04T06:28:09.967Z,17.50
2022-09-04T06:30:44.766Z,17.70
2022-09-04T06:33:40.381Z,17.90
2022-09-04T06:36:38.833Z,18.10
2022-09-04T06:39:30.754Z,18.30
2022-09-04T06:42:12.765Z,18.50
2022-09-04T06:44:53.652Z,18.70
2022-09-04T06:47:34.087Z,18.80
2022-09-04T06:50:21.144Z,19.00
2022-09-04T06:53:04.307Z,19.10
2022-09-04T06:55:39.904Z,19.20
2022-09-04T06:58:43.455Z,19.30
2022-09-04T07:01:17.270Z,19.30
2022-09-04T07:04:01.758Z,19.40
2022-09-04T07:06:46.376Z,19.50
2022-09-04T07:09:20.251Z,19.60
2022-09-04T07:12:14.149Z,19.80
2022-09-04T07:14:59.078Z,20.00
2022-09-04T07:17:33.459Z,20.20
2022-09-04T07:20:18.006Z,20.30
2022-09-04T07:23:19.268Z,20.40
2022-09-04T07:26:00.831Z,20.50
2022-09-04T07:28:44.861Z,20.70
2022-09-04T07:31:21.865Z,20.90
2022-09-04T07:33:56.737Z,21.10
2022-09-04T07:36:34.419Z,21.30
2022-09-04T07:39:12.123Z,21.40
2022-09-04T07:41:47.952Z,21.70
2022-09-04T07:44:24.621Z,22.10
2022-09-04T07:47:01.718Z,22.20
2022-09-04T07:49:36.593Z,22.50
2022-09-04T07:52:17.093Z,23.00
2022-09-04T07:55:06.732Z,22.80
2022-09-04T07:57:57.662Z,22.70
2022-09-04T08:00:29.022Z,22.70
2022-09-04T08:03:17.633Z,22.90
2022-09-04T08:05:50.460Z,22.70
2022-09-04T08:08:46.148Z,22.90
2022-09-04T08:11:42.534Z,22.80
2022-09-04T08:14:24.795Z,22.60
2022-09-04T08:17:07.424Z,22.60
2022-09-04T08:19:43.938Z,22.70
2022-09-04T08:22:20.082Z,22.80
2022-09-04T08:25:02.146Z,23.00
2022-09-04T08:27:47.851Z,23.20
2022-09-04T08:30:21.921Z,23.50
2022-09-04T08:33:29.788Z,23.70
2022-09-04T08:36:01.814Z,24.10
2022-09-04T08:38:48.891Z,24.50
2022-09-04T08:41:56.183Z,24.90
2022-09-04T08:44:51.856Z,24.90
2022-09-04T08:47:54.587Z,25.20
2022-09-04T08:50:48.198Z,25.40
2022-09-04T08:54:02.624Z,25.20
2022-09-04T08:56:38.851Z,25.30
2022-09-04T08:59:38.939Z,25.60
2022-09-04T09:02:44.205Z,25.60
2022-09-04T09:05:56.209Z,25.50
2022-09-04T09:08:52.293Z,25.60
2022-09-04T09:11:54.456Z,26.00
2022-09-04T09:14:55.298Z,26.20
2022-09-04T09:17:38.475Z,26.10
2022-09-04T09:20:51.710Z,25.90
2022-09-04T09:23:22.322Z,25.90
2022-09-04T09:26:08.763Z,26.00
2022-09-04T09:29:26.613Z,26.20
2022-09-04T09:32:55.853Z,26.30
2022-09-04T09:36:01.685Z,26.50
2022-09-04T09:39:07.158Z,26.80
2022-09-04T09:42:02.521Z,26.90
2022-09-04T09:44:57.227Z,26.60
2022-09-04T09:47:52.437Z,26.20
2022-09-04T09:50:54.314Z,26.30
2022-09-04T09:53:54.523Z,26.30
2022-09-04T09:56:53.675Z,26.50
2022-09-04T10:00:04.614Z,26.50
2022-09-04T10:03:10.756Z,26.50
2022-09-04T10:06:19.320Z,26.50
2022-09-04T10:09:20.079Z,26.80
2022-09-04T10:12:26.705Z,27.10
2022-09-04T10:15:24.282Z,27.60
2022-09-04T10:18:23.125Z,27.50
2022-09-04T10:21:12.406Z,27.50
2022-09-04T10:24:10.343Z,27.60
2022-09-04T10:27:05.176Z,27.90
2022-09-04T10:30:01.096Z,28.30
2022-09-04T10:33:07.925Z,28.30
2022-09-04T10:35:53.433Z,28.00
2022-09-04T10:38:29.789Z,28.10
2022-09-04T10:41:32.700Z,28.30
2022-09-04T10:44:41.463Z,28.50
2022-09-04T10:47:28.278Z,28.70
2022-09-04T10:50:35.461Z,28.90
2022-09-04T10:53:21.465Z,28.90
2022-09-04T10:56:05.611Z,28.70
2022-09-04T10:59:04.883Z,28.50
2022-09-04T11:02:02.459Z,28.80
2022-09-04T11:05:19.352Z,29.00
2022-09-04T11:08:13.697Z,29.00
2022-09-04T11:11:08.710Z,28.80
2022-09-04T11:14:06.973Z,28.50
2022-09-04T11:17:14.286Z,28.80
2022-09-04T11:20:20.160Z,29.20
2022-09-04T11:23:33.716Z,29.10
2022-09-04T11:26:40.999Z,29.10
2022-09-04T11:29:35.358Z,29.20
2022-09-04T11:32:23.008Z,29.00
2022-09-04T11:35:32.194Z,28.80
2022-09-04T11:38:09.036Z,29.10
2022-09-04T11:41:15.560Z,29.70
2022-09-04T11:43:58.655Z,29.50
2022-09-04T11:46:51.016Z,29.00
2022-09-04T11:49:39.855Z,29.60
2022-09-04T11:52:22.711Z,29.60
2022-09-04T11:55:23.959Z,29.90
2022-09-04T11:58:08.385Z,30.00
2022-09-04T12:00:59.470Z,29.90
2022-09-04T12:03:51.694Z,30.00
2022-09-04T12:06:35.116Z,30.20
2022-09-04T12:09:21.208Z,30.10
2022-09-04T12:12:22.737Z,29.90
2022-09-04T12:15:24.200Z,30.00
2022-09-04T12:18:24.438Z,29.80
2022-09-04T12:21:28.252Z,29.50
2022-09-04T12:24:29.845Z,29.70
2022-09-04T12:27:37.090Z,30.20
2022-09-04T12:30:13.708Z,30.60
2022-09-04T12:33:20.440Z,30.70
2022-09-04T12:36:36.220Z,30.60
2022-09-04T12:39:35.705Z,30.50
2022-09-04T12:42:10.936Z,30.70
2022-09-04T12:44:52.080Z,30.60
2022-09-04T12:47:33.201Z,30.70
2022-09-04T12:50:33.772Z,30.70
2022-09-04T12:53:33.164Z,30.40
2022-09-04T12:56:10.241Z,29.80
2022-09-04T12:59:15.984Z,29.20
2022-09-04T13:01:59.166Z,29.20
2022-09-04T13:04:36.400Z,30.10
2022-09-04T13:07:22.843Z,30.80
2022-09-04T13:10:02.811Z,30.90
2022-09-04T13:12:43.669Z,30.90
2022-09-04T13:15:40.543Z,30.40
2022-09-04T13:18:24.246Z,30.00
2022-09-04T13:21:01.514Z,30.50
2022-09-04T13:23:57.194Z,30.70
2022-09-04T13:26:39.104Z,30.40
2022-09-04T13:29:19.584Z,30.10
2022-09-04T13:32:17.808Z,30.50
2022-09-04T13:35:03.845Z,30.90
2022-09-04T13:37:45.323Z,30.70
2022-09-04T13:40:33.428Z,30.30
2022-09-04T13:43:33.090Z,30.80
2022-09-04T13:46:05.450Z,31.10
2022-09-04T13:48:43.878Z,31.70
2022-09-04T13:51:16.874Z,31.80
2022-09-04T13:54:04.876Z,31.50
2022-09-04T13:56:38.437Z,31.10
2022-09-04T13:59:10.557Z,31.00
2022-09-04T14:01:46.295Z,30.80
2022-09-04T14:04:19.430Z,30.50
2022-09-04T14:06:49.139Z,30.60
2022-09-04T14:09:18.316Z,30.10
2022-09-04T14:12:06.108Z,29.90
2022-09-04T14:15:13.717Z,30.40
2022-09-04T14:17:50.670Z,30.50
2022-09-04T14:20:24.792Z,29.70
2022-09-04T14:23:07.349Z,29.40
2022-09-04T14:25:45.381Z,29.10
2022-09-04T14:28:20.422Z,29.20
2022-09-04T14:31:02.100Z,29.60
2022-09-04T14:33:45.393Z,30.10
2022-09-04T14:36:25.342Z,29.70
2022-09-04T14:39:16.483Z,29.50
2022-09-04T14:42:12.332Z,28.60
2022-09-04T14:45:01.651Z,28.20
2022-09-04T14:47:38.909Z,28.40
2022-09-04T14:50:09.763Z,28.70
2022-09-04T14:52:45.436Z,29.00
2022-09-04T14:55:17.383Z,29.30
2022-09-04T14:57:51.680Z,29.80
2022-09-04T15:00:22.186Z,30.40
2022-09-04T15:02:58.136Z,30.60
2022-09-04T15:05:31.847Z,30.40
2022-09-04T15:08:04.910Z,30.40
2022-09-04T15:10:49.921Z,30.30
2022-09-04T15:13:39.355Z,30.40
2022-09-04T15:16:29.379Z,30.50
2022-09-04T15:19:05.322Z,30.60
2022-09-04T15:21:44.686Z,29.90
2022-09-04T15:24:26.737Z,29.20
2022-09-04T15:27:03.825Z,29.30
2022-09-04T15:29:40.736Z,29.80
2022-09-04T15:32:14.197Z,30.40
2022-09-04T15:34:43.003Z,30.20
2022-09-04T15:37:16.219Z,30.30
2022-09-04T15:39:55.457Z,30.20
2022-09-04T15:42:43.907Z,30.00
2022-09-04T15:45:22.133Z,29.90
2022-09-04T15:48:15.494Z,29.70
2022-09-04T15:50:57.853Z,29.60
2022-09-04T15:53:31.874Z,29.90
2022-09-04T15:56:10.785Z,30.10
2022-09-04T15:58:53.264Z,29.60
2022-09-04T16:01:26.898Z,28.50
2022-09-04T16:04:12.631Z,28.10
2022-09-04T16:06:48.097Z,28.10
2022-09-04T16:09:25.738Z,27.60
2022-09-04T16:12:05.788Z,27.30
2022-09-04T16:14:44.719Z,26.90
2022-09-04T16:17:17.457Z,26.50
2022-09-04T16:19:57.739Z,26.20
2022-09-04T16:22:36.527Z,26.20
2022-09-04T16:25:11.297Z,26.00
2022-09-04T16:27:47.912Z,25.90
2022-09-04T16:30:31.503Z,25.90
2022-09-04T16:33:01.427Z,26.00
2022-09-04T16:35:35.335Z,25.90
2022-09-04T16:38:09.365Z,25.80
2022-09-04T16:40:43.199Z,25.70
2022-09-04T16:43:24.715Z,25.50
2022-09-04T16:46:08.584Z,25.40
2022-09-04T16:48:45.190Z,25.30
2022-09-04T16:51:40.264Z,25.40
2022-09-04T16:54:18.473Z,25.40
2022-09-04T16:56:50.265Z,25.60
2022-09-04T16:59:32.748Z,25.80
2022-09-04T17:02:03.328Z,25.70
2022-09-04T17:04:39.979Z,25.40
2022-09-04T17:07:18.150Z,25.20
2022-09-04T17:09:55.971Z,25.20
2022-09-04T17:12:42.113Z,25.20
2022-09-04T17:15:21.340Z,25.10
2022-09-04T17:17:51.191Z,25.10
2022-09-04T17:20:38.445Z,25.00
2022-09-04T17:28:56.215Z,24.80
2022-09-04T17:29:16.513Z,24.70
2022-09-04T17:32:00.623Z,24.50
2022-09-04T17:40:33.383Z,24.50
2022-09-04T17:40:56.469Z,24.50
2022-09-04T17:41:36.073Z,24.30
2022-09-04T17:44:06.299Z,24.10
2022-09-04T17:46:37.405Z,24.00
2022-09-04T17:49:20.197Z,23.90
2022-09-04T17:51:54.070Z,23.70
2022-09-04T17:54:28.866Z,23.60
2022-09-04T17:57:01.780Z,23.40
2022-09-04T17:59:40.493Z,23.20
2022-09-04T18:02:19.029Z,23.00
2022-09-04T18:04:53.747Z,22.80
2022-09-04T18:08:08.208Z,22.70
2022-09-04T18:10:25.615Z,22.60
2022-09-04T18:13:08.812Z,22.50
2022-09-04T18:16:07.896Z,22.30
2022-09-04T18:18:40.435Z,22.10
2022-09-04T18:21:18.612Z,21.80
2022-09-04T18:23:52.739Z,21.70
2022-09-04T18:26:40.221Z,21.70
2022-09-04T18:31:02.470Z,21.50
2022-09-04T18:37:09.742Z,21.30
2022-09-04T18:37:21.336Z,21.20
2022-09-04T18:38:44.671Z,21.00
2022-09-04T18:45:13.117Z,20.80
2022-09-04T18:50:24.012Z,20.60
2022-09-04T18:50:40.370Z,20.20
2022-09-04T18:50:44.951Z,20.40
2022-09-04T18:53:07.301Z,20.10
2022-09-04T18:55:45.608Z,19.90
2022-09-04T18:58:46.992Z,19.70
2022-09-04T19:01:26.732Z,19.50
2022-09-04T19:03:58.536Z,19.40
2022-09-04T19:06:34.437Z,19.40
2022-09-04T19:09:11.751Z,19.20
2022-09-04T19:11:48.933Z,19.10
2022-09-04T19:14:19.805Z,19.10
2022-09-04T19:16:52.518Z,19.00
2022-09-04T19:19:29.744Z,18.90
2022-09-04T19:22:07.465Z,18.80
2022-09-04T19:24:42.581Z,18.80
2022-09-04T19:27:27.874Z,18.90
2022-09-04T19:30:17.831Z,18.90
2022-09-04T19:33:06.020Z,18.80
2022-09-04T19:35:39.490Z,18.80
2022-09-04T19:43:36.467Z,18.70
2022-09-04T19:46:09.035Z,18.70
2022-09-04T19:46:18.486Z,18.70
2022-09-04T19:47:29.147Z,18.70
2022-09-04T19:53:22.064Z,18.50
2022-09-04T19:53:30.162Z,18.50
2022-09-04T19:56:03.276Z,18.40
2022-09-04T19:58:39.308Z,18.30
2022-09-04T20:01:17.789Z,18.30
2022-09-04T20:03:54.505Z,18.40
2022-09-04T20:06:27.365Z,18.40
2022-09-04T20:09:03.416Z,18.30
2022-09-04T20:11:38.817Z,18.20
2022-09-04T20:14:14.857Z,18.20
2022-09-04T20:17:07.360Z,18.20
2022-09-04T20:19:40.435Z,18.10
2022-09-04T20:22:18.145Z,18.00
2022-09-04T20:25:01.260Z,17.90
2022-09-04T20:27:36.064Z,17.80
2022-09-04T20:30:12.027Z,17.80
2022-09-04T20:32:55.702Z,17.80
2022-09-04T20:35:33.849Z,17.80
2022-09-04T20:38:12.456Z,17.70
2022-09-04T20:40:45.302Z,17.80
2022-09-04T20:43:26.691Z,17.80
2022-09-04T20:51:13.786Z,17.80
2022-09-04T20:52:54.417Z,17.70
2022-09-04T20:52:59.381Z,17.60
2022-09-04T20:55:13.424Z,17.50
2022-09-04T21:03:05.695Z,17.40
2022-09-04T21:03:09.147Z,17.30
2022-09-04T21:04:03.104Z,17.20
2022-09-04T21:06:39.016Z,17.20
2022-09-04T21:09:19.468Z,17.20
2022-09-04T21:11:52.042Z,17.20
2022-09-04T21:14:29.981Z,17.10
2022-09-04T21:17:35.990Z,17.10
2022-09-04T21:20:30.952Z,17.10
2022-09-04T21:23:37.606Z,17.10
2022-09-04T21:26:18.005Z,17.20
2022-09-04T21:29:13.992Z,17.10
2022-09-04T21:32:24.333Z,17.00
2022-09-04T21:34:58.693Z,16.90
2022-09-04T21:37:34.415Z,16.80
2022-09-04T21:40:51.404Z,16.70
2022-09-04T21:43:37.254Z,16.60
2022-09-04T21:46:29.086Z,16.50
2022-09-04T21:49:26.897Z,16.50
2022-09-04T21:52:25.425Z,16.60
2022-09-04T21:58:38.544Z,16.60
2022-09-04T22:02:38.446Z,16.60
2022-09-04T22:02:40.141Z,16.60
2022-09-04T22:04:38.140Z,16.50
2022-09-04T22:13:29.152Z,16.50
2022-09-04T22:13:41.775Z,16.40
2022-09-04T22:13:47.911Z,16.30
2022-09-04T22:16:29.512Z,16.40
2022-09-04T22:19:32.044Z,16.30
2022-09-04T22:22:20.793Z,16.30
2022-09-04T22:25:07.531Z,16.20
2022-09-04T22:28:14.905Z,16.10
2022-09-04T22:31:05.505Z,16.10
2022-09-04T22:34:15.801Z,16.10
2022-09-04T22:37:05.696Z,16.10
2022-09-04T22:40:01.104Z,16.20
2022-09-04T22:42:45.225Z,16.50
2022-09-04T22:45:38.677Z,16.50
2022-09-04T22:48:44.093Z,16.50
2022-09-04T22:51:35.092Z,16.60
2022-09-04T22:54:30.249Z,16.70
2022-09-04T22:57:06.183Z,16.90
2022-09-04T23:00:01.660Z,17.00
2022-09-04T23:03:09.613Z,17.30
2022-09-04T23:07:43.744Z,17.60
2022-09-04T23:13:42.308Z,17.80
2022-09-04T23:14:00.282Z,17.80
2022-09-04T23:15:44.849Z,17.80
2022-09-04T23:20:22.432Z,18.00
2022-09-04T23:26:37.153Z,17.80
2022-09-04T23:26:42.067Z,17.80
2022-09-04T23:28:02.654Z,18.10
2022-09-04T23:31:00.454Z,17.90
2022-09-04T23:33:52.521Z,17.70
2022-09-04T23:36:56.273Z,17.40
2022-09-04T23:40:03.511Z,17.20
2022-09-04T23:42:58.717Z,17.00
2022-09-04T23:46:01.174Z,16.80
2022-09-04T23:48:55.858Z,16.80
2022-09-04T23:51:35.585Z,16.90
2022-09-04T23:54:30.368Z,17.00
2022-09-04T23:57:11.205Z,17.00
